Yokohama, Japan

8:57 AM JST on September 20, 2014 (GMT +0900)
Totsukaku-Kashiodai | Change Station
CLOSE
Current Station
Personal Weather Station
Location: 横浜市, 神奈川県
Elevation: 112 ft
Nearby Weather Stations

Elev 112 ft 35.42 °N, 139.56 °E | Updated 12 seconds ago

Overcast
Overcast
69.1 °F
Feels Like 69.1 °F
N
2.7
Wind Variable Wind from North
Gusts 4.9 mph

Today
High -- | Low -- °F
--% Chance of Precip.
Yesterday
High -- | Low -- °F
Precip. -- in
5:27 AM 5:42 PM
Waning Crescent, 16% visible
Pressure 29.95 in
Visibility 6.2 miles
Clouds Few 2500 ft
Scattered Clouds 3000 ft
Overcast 11000 ft
Dew Point 53 °F
Humidity 56%
Rainfall 0.00 in
Snow Depth Not available.
UV 1 out of 12
Pollen Not available.
Air Quality Not available.
Flu Activity Not available.
METAR RJTT 192330Z 02011KT 9999 -RA FEW025 SCT030 OVC110 20/13 Q1014 NOSIG RMK 1CU025 3SC030 8AS110 A2995

More Conditions Fewer Conditions

Pressure 29.95 in
Visibility 6.2 miles
Clouds Few 2500 ft
Scattered Clouds 3000 ft
Overcast 11000 ft
Dew Point 53 °F
Humidity 56%
Rainfall 0.00 in
Snow Depth Not available.
UV 1 out of 12
Pollen Not available.
Air Quality Not available.
Flu Activity Not available.
METAR RJTT 192330Z 02011KT 9999 -RA FEW025 SCT030 OVC110 20/13 Q1014 NOSIG RMK 1CU025 3SC030 8AS110 A2995

More Conditions Fewer Conditions

10-Day Weather Forecast

Almanac

Astronomy

Sep. 20, 2014 Rise Set
Actual Time 5:27 AM JST 5:42 PM JST
Civil Twilight 5:01 AM JST 6:07 PM JST
Nautical Twilight 4:32 AM JST 6:37 PM JST
Astronomical Twilight 4:01 AM JST 7:07 PM JST
Moon 1:38 AM JST (9/20) 3:17 PM JST (9/20)
Length of Visible Light 13h 05m
Length of Day
12h 14m
Tomorrow will be 2m 12s shorter.
Waning Crescent, 16% of the Moon is Illuminated
Sep 19
Waning Crescent
Sep 24
New
Oct 1
First Quarter
Oct 8
Full
Oct 15
Last Quarter

Yesterday's Extremes

Country Highs Country Lows

Community

WunderPhotos

Upload Photos

1,754,730 photos uploaded!

Nearby

Snow Depth

Not available.

Earthquake Activity

City Distance Mag. Time & Date
No recent earthquake activity has been reported nearby.
Minimum magnitude displayed is 2.5.

Coastal Water Temperatures

Place Temperature
No Stations Reporting

Nearby Weather Stations